This is the latest recevied weather packets stored in our database for station/object DO3HUM-5. If no packets are shown the sender has not sent any weather packets the latest 10 day(s).
| Time | Temp. | Humidity | Pressure | Rain* | Wind** | Luminosity | Snow |
|---|---|---|---|---|---|---|---|
| 1777786518 | 13.89° C | 64% | 1021.4 hPa | 0 mm | - | - | - |
| 1777785969 | 12.78° C | 66% | 1021.3 hPa | 0 mm | - | - | - |
| 1777785367 | 11.11° C | 74% | 1021.4 hPa | 0 mm | - | - | - |
| 1777784759 | 10.56° C | 77% | 1021.4 hPa | 0 mm | - | - | - |
| 1777784155 | 9.44° C | 80% | 1021.4 hPa | 0 mm | - | - | - |
| 1777783548 | 8.89° C | 82% | 1021.4 hPa | 0 mm | - | - | - |
| 1777782946 | 8.89° C | 81% | 1021.3 hPa | 0 mm | - | - | - |
| 1777782341 | 8.89° C | 80% | 1021.4 hPa | 0 mm | - | - | - |
| 1777781733 | 8.33° C | 83% | 1021.4 hPa | 0 mm | - | - | - |
| 1777781131 | 8.33° C | 83% | 1021.2 hPa | 0 mm | - | - | - |
| 1777780522 | 8.89° C | 82% | 1021.2 hPa | 0 mm | - | - | - |
| 1777779920 | 8.89° C | 83% | 1021.3 hPa | 0 mm | - | - | - |
| 1777779373 | 8.89° C | 84% | 1021.1 hPa | 0 mm | - | - | - |
| 1777778768 | 8.89° C | 81% | 1021.1 hPa | 0 mm | - | - | - |
| 1777778165 | 8.89° C | 81% | 1021.2 hPa | 0 mm | - | - | - |
| 1777777558 | 8.89° C | 81% | 1021.3 hPa | 0 mm | - | - | - |
| 1777776954 | 9.44° C | 81% | 1021.5 hPa | 0 mm | - | - | - |
| 1777776343 | 8.33° C | 84% | 1021.4 hPa | 0 mm | - | - | - |
| 1777775735 | 8.89° C | 83% | 1021.4 hPa | 0 mm | - | - | - |
| 1777775132 | 8.33° C | 83% | 1021.5 hPa | 0 mm | - | - | - |
| 1777774530 | 8.89° C | 83% | 1021.5 hPa | 0 mm | - | - | - |
| 1777773923 | 8.89° C | 83% | 1021.5 hPa | 0 mm | - | - | - |
| 1777773320 | 8.89° C | 82% | 1021.5 hPa | 0 mm | - | - | - |
| 1777772770 | 8.89° C | 83% | 1021.4 hPa | 0 mm | - | - | - |
| 1777772167 | 8.89° C | 84% | 1021.4 hPa | 0 mm | - | - | - |
* Rain latest hour (hover to see other rain measurements)
** Current wind speed in m/s (hover to see current wind gust speed)